Terminal Aerodrome Forecast
Issued by NWS

Home | Current Version | Previous Version | Text Only | Print | Product List | Glossary On
Versions: 1 2 3 4 5 6 7 8 9 10 11 12 13 14 15 16 17
000
FTUS44 KLZK 292340
TAFHOT
TAF
KHOT 292340Z 3000/3024 18008G16KT P6SM VCTS SCT025 BKN050CB
     FM300200 16012KT 5SM -TSRA BR BKN025CB OVC060
      TEMPO 3002/3006 VRB10G30KT 2SM -TSRA BR BKN010CB
     FM300800 21008G16KT 6SM BR SCT025 BKN050
     FM301400 23011KT P6SM SCT040 BKN080=

USA.gov is the U.S. government's official web portal to all federal, state and local government web resources and services.